Time;durP1;ratioP1;P1;durP2;ratioP2;P2;SDS_P1;SDS_P2;PMS_P1;PMS_P2;Temp;Humidity;BMP_temperature;BMP_pressure;BME280_temperature;BME280_humidity;BME280_pressure;Samples;Min_cycle;Max_cycle;Signal;HPM_P1;HPM_P2
2021/06/24 00:00:56;;;;;;;;;5.00;5.00;;;;;23.29;43.26;101765.84;5014881;27;51395;-49
2021/06/24 00:03:26;;;;;;;;;7.00;6.75;;;;;23.28;43.89;101758.59;5027522;28;51821;-48
2021/06/24 00:05:53;;;;;;;;;10.00;8.50;;;;;23.26;43.92;101764.34;5025600;28;51186;-47
2021/06/24 00:08:18;;;;;;;;;10.00;8.00;;;;;23.26;43.44;101763.50;5013249;27;51280;-48
2021/06/24 00:10:45;;;;;;;;;8.00;7.00;;;;;23.25;43.37;101767.34;5030633;27;51411;-49
2021/06/24 00:13:10;;;;;;;;;8.50;5.75;;;;;23.24;43.24;101762.84;5016824;27;51329;-52
2021/06/24 00:15:38;;;;;;;;;7.00;7.00;;;;;23.25;43.35;101761.81;5016500;27;50949;-50
2021/06/24 00:18:04;;;;;;;;;8.25;7.25;;;;;23.25;43.43;101761.81;5033499;27;51137;-48
2021/06/24 00:20:29;;;;;;;;;6.50;6.50;;;;;23.23;43.40;101769.47;5042670;27;51131;-50
2021/06/24 00:22:55;;;;;;;;;7.00;6.50;;;;;23.22;43.64;101768.59;5016790;28;51058;-50
2021/06/24 00:25:20;;;;;;;;;6.00;4.25;;;;;23.22;43.80;101762.22;5015712;27;51065;-48
2021/06/24 00:27:45;;;;;;;;;8.50;6.50;;;;;23.19;43.91;101763.53;5015128;27;51148;-48
2021/06/24 00:30:12;;;;;;;;;9.75;6.75;;;;;23.19;43.83;101748.88;5015504;27;51356;-52
2021/06/24 00:32:38;;;;;;;;;6.00;6.00;;;;;23.19;43.91;101762.69;5015381;27;52362;-49
2021/06/24 00:35:05;;;;;;;;;7.00;7.00;;;;;23.16;43.75;101747.38;5014404;27;51140;-52
2021/06/24 00:37:32;;;;;;;;;6.00;5.25;;;;;23.16;43.41;101743.78;5022580;27;51593;-49
2021/06/24 00:39:58;;;;;;;;;8.00;6.25;;;;;23.15;43.41;101754.00;5017914;27;51279;-48
2021/06/24 00:42:29;;;;;;;;;6.00;6.00;;;;;23.14;43.75;101749.53;5014883;28;52296;-49
2021/06/24 00:44:54;;;;;;;;;6.50;5.50;;;;;23.14;43.50;101752.28;5014113;27;51535;-47
2021/06/24 00:47:20;;;;;;;;;6.50;6.50;;;;;23.13;43.47;101756.09;5013772;28;51113;-47
2021/06/24 00:49:45;;;;;;;;;6.00;6.00;;;;;23.12;43.88;101754.41;5016134;28;50896;-49
2021/06/24 00:52:11;;;;;;;;;6.75;6.75;;;;;23.11;43.23;101752.72;5016767;28;51848;-49
2021/06/24 00:54:37;;;;;;;;;6.50;6.00;;;;;23.11;43.72;101749.09;5014630;28;50994;-48
2021/06/24 00:57:05;;;;;;;;;8.00;6.75;;;;;;;;5012463;28;50973;-48
2021/06/24 00:59:31;;;;;;;;;5.75;5.75;;;;;23.10;43.30;101744.63;5013768;28;51223;-47
2021/06/24 01:01:57;;;;;;;;;7.50;7.00;;;;;23.08;43.57;101735.72;5013656;27;51172;-47
2021/06/24 01:04:22;;;;;;;;;5.25;5.25;;;;;23.07;43.73;101734.03;5014339;28;51001;-47
2021/06/24 01:06:49;;;;;;;;;8.00;6.25;;;;;23.06;43.75;101726.81;5021273;28;51168;-55
2021/06/24 01:09:15;;;;;;;;;9.00;7.00;;;;;23.04;43.80;101730.66;5026702;28;51154;-48
2021/06/24 01:11:41;;;;;;;;;5.50;5.50;;;;;23.03;43.78;101728.06;5016589;27;51588;-48
2021/06/24 01:14:08;;;;;;;;;8.00;5.75;;;;;23.03;43.95;101731.72;5013758;28;50883;-52
2021/06/24 01:16:33;;;;;;;;;5.50;5.50;;;;;23.02;44.00;101730.00;5029167;28;51020;-50
2021/06/24 01:18:58;;;;;;;;;6.25;6.25;;;;;23.02;43.47;101734.66;5011730;28;51432;-52
2021/06/24 01:21:24;;;;;;;;;6.25;6.25;;;;;23.01;43.99;101735.75;5013917;28;51762;-50
2021/06/24 01:23:49;;;;;;;;;5.75;5.00;;;;;23.00;43.97;101728.53;5011830;27;52534;-49
2021/06/24 01:26:15;;;;;;;;;9.25;5.00;;;;;22.99;43.52;101726.81;5016120;28;51067;-50
2021/06/24 01:28:40;;;;;;;;;8.50;6.50;;;;;22.99;43.92;101730.44;5019499;27;51283;-47
2021/06/24 01:31:06;;;;;;;;;7.50;6.25;;;;;22.98;43.41;101730.66;5014972;27;51009;-49
2021/06/24 01:33:32;;;;;;;;;7.50;6.25;;;;;22.97;43.92;101724.28;5013756;28;51176;-47
2021/06/24 01:36:00;;;;;;;;;6.00;5.75;;;;;22.96;43.91;101721.75;5014154;28;51008;-52
2021/06/24 01:38:26;;;;;;;;;6.50;6.50;;;;;22.95;43.72;101717.28;5031417;27;51215;-49
2021/06/24 01:40:52;;;;;;;;;7.00;4.75;;;;;22.96;44.06;101713.44;5027904;28;53099;-48
2021/06/24 01:43:18;;;;;;;;;5.00;5.00;;;;;22.93;44.02;101711.97;5016482;28;51693;-48
2021/06/24 01:45:49;;;;;;;;;6.75;5.75;;;;;22.94;44.04;101710.06;5017592;27;51267;-50
2021/06/24 01:48:14;;;;;;;;;6.50;6.25;;;;;22.93;43.54;101711.13;5030162;28;52524;-52
2021/06/24 01:50:40;;;;;;;;;3.50;1.00;;;;;22.92;43.60;101713.03;5022460;28;50879;-48
2021/06/24 01:53:05;;;;;;;;;6.25;6.25;;;;;22.92;43.58;101703.88;5013356;28;51050;-47
2021/06/24 01:55:35;;;;;;;;;5.50;4.75;;;;;22.91;43.66;101700.28;5013114;27;51120;-47
2021/06/24 01:58:03;;;;;;;;;6.00;5.00;;;;;22.91;43.42;101702.19;5012939;28;51639;-47
2021/06/24 02:00:29;;;;;;;;;5.25;5.00;;;;;22.89;43.31;101699.66;5012651;28;51907;-49
2021/06/24 02:02:56;;;;;;;;;7.00;6.00;;;;;22.89;44.00;101693.28;5012701;28;51116;-48
2021/06/24 02:05:21;;;;;;;;;5.75;5.75;;;;;22.89;44.06;101691.38;5015604;28;52471;-49
2021/06/24 02:07:47;;;;;;;;;5.25;4.75;;;;;22.87;43.59;101690.75;5013338;27;51220;-48
2021/06/24 02:10:12;;;;;;;;;6.75;5.50;;;;;22.87;43.48;101689.91;5012645;28;51847;-50
2021/06/24 02:12:38;;;;;;;;;7.25;5.00;;;;;22.85;44.10;101687.34;5012566;27;51065;-48
2021/06/24 02:15:06;;;;;;;;;6.00;4.25;;;;;22.85;43.39;101690.13;5014325;28;51015;-49
2021/06/24 02:17:32;;;;;;;;;7.25;6.00;;;;;22.83;43.35;101689.47;5016765;28;51030;-51
2021/06/24 02:19:57;;;;;;;;;6.75;5.50;;;;;22.82;43.39;101687.72;5035569;27;51246;-47
2021/06/24 02:22:22;;;;;;;;;6.00;4.00;;;;;22.82;43.39;101682.22;5014775;27;50992;-47
2021/06/24 02:24:48;;;;;;;;;7.25;5.00;;;;;22.81;43.95;101682.44;5018071;28;51007;-47
2021/06/24 02:27:13;;;;;;;;;5.50;4.75;;;;;22.81;43.64;101680.50;5037690;27;50614;-53
2021/06/24 02:29:38;;;;;;;;;7.50;6.00;;;;;22.80;43.45;101675.22;5015598;28;51357;-47
2021/06/24 02:32:04;;;;;;;;;6.50;5.25;;;;;22.80;43.35;101677.97;5027352;27;51017;-49
2021/06/24 02:34:29;;;;;;;;;6.00;4.50;;;;;22.78;43.92;101680.97;5012615;27;51644;-49
2021/06/24 02:36:55;;;;;;;;;4.50;4.25;;;;;22.79;43.43;101676.28;5012574;27;52240;-49
2021/06/24 02:39:21;;;;;;;;;6.75;6.75;;;;;22.76;44.12;101674.81;5021818;27;51147;-50
2021/06/24 02:41:46;;;;;;;;;5.50;5.50;;;;;22.75;43.72;101670.34;5031521;27;50946;-49
2021/06/24 02:44:11;;;;;;;;;5.00;5.00;;;;;22.75;43.48;101671.19;5015773;27;50956;-49
2021/06/24 02:46:38;;;;;;;;;6.75;6.75;;;;;22.76;43.48;101669.28;5014229;27;51198;-50
2021/06/24 02:49:03;;;;;;;;;6.00;6.00;;;;;22.74;43.99;101679.72;5012282;27;51068;-47
2021/06/24 02:51:28;;;;;;;;;6.00;6.00;;;;;22.73;43.93;101683.53;5012667;28;50977;-47
2021/06/24 02:53:54;;;;;;;;;6.00;6.00;;;;;22.72;43.88;101677.19;5012513;27;50942;-47
2021/06/24 02:56:22;;;;;;;;;5.00;5.00;;;;;22.72;43.54;101671.66;5012899;28;51510;-48
2021/06/24 02:58:49;;;;;;;;;6.50;5.25;;;;;22.71;43.64;101669.06;5027926;28;53690;-48
2021/06/24 03:01:14;;;;;;;;;6.00;4.00;;;;;22.70;44.01;101668.22;5016266;27;51009;-51
2021/06/24 03:03:40;;;;;;;;;5.25;5.00;;;;;22.71;43.58;101671.84;5014034;28;51086;-47
2021/06/24 03:06:06;;;;;;;;;5.00;5.00;;;;;22.69;43.43;101671.22;5010371;28;51000;-50
2021/06/24 03:08:31;;;;;;;;;5.00;5.00;;;;;22.67;43.96;101665.91;5008429;27;52934;-51
2021/06/24 03:10:56;;;;;;;;;7.00;7.00;;;;;22.68;43.63;101675.03;5011545;27;51125;-48
2021/06/24 03:13:22;;;;;;;;;6.25;6.00;;;;;22.67;43.92;101663.16;5012302;28;51072;-49
2021/06/24 03:15:47;;;;;;;;;5.00;5.00;;;;;22.66;43.37;101666.97;5012811;27;50881;-48
2021/06/24 03:18:12;;;;;;;;;6.50;5.00;;;;;22.66;43.53;101668.91;5040315;27;52789;-49
2021/06/24 03:20:38;;;;;;;;;7.00;6.25;;;;;22.66;43.54;101666.97;5039057;27;50866;-48
2021/06/24 03:23:03;;;;;;;;;8.00;6.50;;;;;22.66;43.59;101671.66;5011920;27;50988;-47
2021/06/24 03:25:29;;;;;;;;;5.75;4.50;;;;;22.65;43.90;101675.50;5012437;27;51397;-50
2021/06/24 03:27:55;;;;;;;;;5.25;4.25;;;;;22.64;43.43;101671.03;5012301;27;52000;-52
2021/06/24 03:30:21;;;;;;;;;5.75;5.75;;;;;22.64;43.68;101679.31;5012062;28;51072;-46
2021/06/24 03:32:47;;;;;;;;;5.00;5.00;;;;;22.62;43.87;101678.69;5026125;28;51038;-50
2021/06/24 03:35:13;;;;;;;;;8.00;6.00;;;;;22.61;43.99;101675.06;5028796;27;50637;-46
2021/06/24 03:37:39;;;;;;;;;8.00;7.00;;;;;22.61;43.76;101674.19;5041713;27;51673;-50
2021/06/24 03:40:07;;;;;;;;;7.00;4.00;;;;;22.60;43.43;101676.13;5023663;27;51405;-47
2021/06/24 03:42:33;;;;;;;;;8.75;5.50;;;;;22.60;43.80;101675.28;5030870;27;51021;-47
2021/06/24 03:44:58;;;;;;;;;6.25;6.25;;;;;22.59;43.64;101673.56;5032134;27;50831;-47
2021/06/24 03:47:24;;;;;;;;;5.75;5.75;;;;;22.58;43.60;101669.13;5022515;28;51000;-46
2021/06/24 03:49:49;;;;;;;;;6.00;5.00;;;;;22.57;43.41;101665.50;5016598;27;50987;-49
2021/06/24 03:52:14;;;;;;;;;7.50;7.00;;;;;22.57;43.42;101664.66;5014059;27;51577;-48
2021/06/24 03:54:40;;;;;;;;;4.00;4.00;;;;;22.58;43.32;101663.59;5017751;28;51153;-49
2021/06/24 03:57:06;;;;;;;;;4.75;4.75;;;;;22.57;43.80;101661.91;5017583;28;51180;-47
2021/06/24 03:59:31;;;;;;;;;6.50;6.50;;;;;22.55;43.02;101670.41;5014759;27;51203;-50
2021/06/24 04:01:56;;;;;;;;;5.25;5.25;;;;;22.56;43.87;101671.25;5014673;28;51223;-46
2021/06/24 04:04:22;;;;;;;;;8.00;6.00;;;;;22.56;43.66;101668.50;5014241;28;51454;-47
2021/06/24 04:06:47;;;;;;;;;3.50;3.25;;;;;22.55;43.37;101675.09;5011195;28;51112;-49
2021/06/24 04:09:14;;;;;;;;;6.25;6.00;;;;;22.54;43.37;101674.25;5013245;27;51003;-49
2021/06/24 04:11:39;;;;;;;;;5.25;4.75;;;;;22.53;43.25;101671.69;5014053;27;51118;-48
2021/06/24 04:14:05;;;;;;;;;5.50;4.50;;;;;22.52;43.58;101679.13;5018049;28;51249;-49
2021/06/24 04:16:30;;;;;;;;;6.25;6.25;;;;;22.51;43.77;101669.16;5017654;27;51724;-49
2021/06/24 04:18:55;;;;;;;;;7.50;5.50;;;;;22.50;43.40;101683.16;5014506;28;51006;-51
2021/06/24 04:21:21;;;;;;;;;6.50;4.00;;;;;22.51;43.47;101671.03;5015760;28;50983;-51
2021/06/24 04:23:46;;;;;;;;;5.75;5.75;;;;;22.51;43.38;101684.84;5030001;27;51201;-48
2021/06/24 04:26:11;;;;;;;;;5.25;4.75;;;;;22.50;43.24;101680.41;5014267;28;51211;-47
2021/06/24 04:28:37;;;;;;;;;4.25;4.25;;;;;22.50;43.75;101685.91;5017501;27;51145;-49
2021/06/24 04:31:02;;;;;;;;;6.25;6.00;;;;;22.48;43.70;101678.69;5014502;28;51033;-49
2021/06/24 04:33:28;;;;;;;;;6.25;5.00;;;;;22.47;43.24;101685.28;5013741;27;50964;-49
2021/06/24 04:35:53;;;;;;;;;6.75;6.00;;;;;22.47;43.69;101684.44;5014343;27;51069;-51
2021/06/24 04:38:18;;;;;;;;;6.50;5.75;;;;;22.46;43.33;101686.34;5024404;27;51195;-50
2021/06/24 04:40:44;;;;;;;;;5.75;4.00;;;;;22.46;43.67;101693.78;5014452;28;51052;-49
2021/06/24 04:43:10;;;;;;;;;4.50;4.00;;;;;22.45;43.21;101687.41;5007401;27;51222;-49
2021/06/24 04:45:35;;;;;;;;;5.25;5.25;;;;;22.44;43.26;101698.69;5013862;28;51661;-49
2021/06/24 04:48:01;;;;;;;;;6.50;5.75;;;;;22.42;43.27;101695.31;5013424;28;51164;-48
2021/06/24 04:50:26;;;;;;;;;5.25;5.00;;;;;22.42;43.60;101698.91;5016144;27;51404;-48
2021/06/24 04:52:52;;;;;;;;;5.00;5.00;;;;;22.42;43.65;101698.06;5019778;28;51140;-48
2021/06/24 04:55:17;;;;;;;;;5.00;4.75;;;;;22.42;43.57;101706.34;5014445;28;51852;-47
2021/06/24 04:57:43;;;;;;;;;9.00;6.75;;;;;22.40;43.22;101698.25;5013145;27;51102;-47
2021/06/24 05:00:09;;;;;;;;;4.50;4.00;;;;;22.41;43.22;101694.44;5029143;28;51445;-49
2021/06/24 05:02:34;;;;;;;;;4.75;4.75;;;;;22.39;43.66;101693.78;5019403;27;50906;-47
2021/06/24 05:05:02;;;;;;;;;9.00;6.75;;;;;22.40;43.64;101694.63;5035489;28;51023;-49
2021/06/24 05:07:27;;;;;;;;;4.00;4.00;;;;;22.39;43.18;101693.78;5039888;27;51166;-47
2021/06/24 05:09:52;;;;;;;;;9.50;5.50;;;;;22.39;43.56;101702.06;5016002;27;51369;-51
2021/06/24 05:12:17;;;;;;;;;7.50;5.25;;;;;22.40;43.13;101694.63;5033409;27;50948;-47
2021/06/24 05:14:43;;;;;;;;;6.00;6.00;;;;;22.40;43.24;101711.19;5013588;27;51169;-47
2021/06/24 05:17:13;;;;;;;;;7.00;5.00;;;;;22.39;43.12;101704.00;5029365;27;52408;-48
2021/06/24 05:19:39;;;;;;;;;5.25;5.25;;;;;22.39;43.40;101704.84;5036721;27;51131;-49
2021/06/24 05:22:04;;;;;;;;;5.75;5.25;;;;;22.39;43.24;101701.22;5025925;27;51087;-47
2021/06/24 05:24:30;;;;;;;;;5.00;5.00;;;;;22.38;43.60;101705.91;5013891;27;51803;-47
2021/06/24 05:26:55;;;;;;;;;5.00;4.50;;;;;22.37;43.45;101706.97;5016458;27;51334;-49
2021/06/24 05:29:21;;;;;;;;;5.50;5.00;;;;;22.37;43.57;101704.22;5017683;28;51197;-47
2021/06/24 05:31:46;;;;;;;;;8.00;7.00;;;;;22.37;43.27;101701.44;5012927;27;51117;-50
2021/06/24 05:34:12;;;;;;;;;7.00;5.25;;;;;22.36;43.42;101699.75;5024606;28;53847;-50
2021/06/24 05:36:37;;;;;;;;;7.00;5.25;;;;;22.36;43.46;101701.66;5010235;28;51132;-51
2021/06/24 05:39:04;;;;;;;;;7.25;7.00;;;;;22.36;42.99;101698.91;5018759;27;51467;-53
2021/06/24 05:41:29;;;;;;;;;6.50;5.75;;;;;22.33;43.27;101682.78;5010175;27;51124;-50
2021/06/24 05:43:54;;;;;;;;;6.00;6.00;;;;;22.25;43.11;101692.13;5010847;28;52425;-50
2021/06/24 05:46:20;;;;;;;;;7.75;7.50;;;;;22.19;44.03;101699.34;5014356;27;51145;-48
2021/06/24 05:48:45;;;;;;;;;7.00;7.00;;;;;22.17;44.33;101698.69;5014718;28;52176;-48
2021/06/24 05:51:11;;;;;;;;;6.25;5.00;;;;;22.16;44.83;101694.25;5009346;27;51370;-49
2021/06/24 05:53:37;;;;;;;;;5.00;4.00;;;;;22.18;44.81;101691.28;5028896;27;51380;-48
2021/06/24 05:56:03;;;;;;;;;6.50;6.50;;;;;22.17;44.54;101695.94;5013048;28;51007;-47
2021/06/24 05:58:31;;;;;;;;;5.00;5.00;;;;;22.19;45.00;101704.00;5013546;28;51106;-52
2021/06/24 06:00:59;;;;;;;;;5.25;5.25;;;;;22.19;44.68;101707.59;5010317;28;51149;-49
2021/06/24 06:03:25;;;;;;;;;5.00;5.00;;;;;22.21;45.25;101712.94;5011804;28;51919;-49
2021/06/24 06:05:51;;;;;;;;;7.00;4.50;;;;;22.19;45.43;101709.53;5018994;27;51412;-48
2021/06/24 06:08:18;;;;;;;;;9.25;4.75;;;;;22.21;45.27;101701.06;5011227;27;52519;-50
2021/06/24 06:10:44;;;;;;;;;5.00;4.00;;;;;22.23;46.22;101712.72;5012233;28;51152;-50
2021/06/24 06:13:10;;;;;;;;;6.75;6.00;;;;;22.26;46.62;101717.81;5017884;27;51722;-51
2021/06/24 06:15:39;;;;;;;;;7.50;7.00;;;;;22.29;46.70;101715.47;5013794;27;51054;-49
2021/06/24 06:18:11;;;;;;;;;4.75;4.00;;;;;22.33;46.84;101719.50;5016680;27;50932;-46
2021/06/24 06:20:37;;;;;;;;;6.50;5.00;;;;;22.35;46.78;101720.13;5020515;27;51209;-48
2021/06/24 06:23:02;;;;;;;;;5.75;5.75;;;;;22.37;46.70;101718.00;5014092;27;51865;-46
2021/06/24 06:25:28;;;;;;;;;7.00;6.00;;;;;22.39;46.53;101726.91;5059970;27;50459;-48
2021/06/24 06:27:53;;;;;;;;;6.50;5.50;;;;;22.41;46.37;101723.97;5026476;27;51246;-46
2021/06/24 06:30:19;;;;;;;;;7.00;5.00;;;;;22.43;46.71;101721.84;5014334;27;50945;-45
2021/06/24 06:32:44;;;;;;;;;6.50;5.00;;;;;22.45;46.56;101730.75;5012859;27;51097;-47
2021/06/24 06:35:10;;;;;;;;;6.25;5.50;;;;;22.47;46.08;101728.63;5012250;28;51282;-46
2021/06/24 06:37:35;;;;;;;;;6.75;5.75;;;;;22.49;46.76;101729.25;5012961;27;51156;-49
2021/06/24 06:40:01;;;;;;;;;5.75;5.75;;;;;22.52;47.02;101731.59;5013364;27;51026;-46
2021/06/24 06:42:26;;;;;;;;;8.00;7.50;;;;;22.54;46.85;101731.38;5013626;27;51243;-48
2021/06/24 06:44:52;;;;;;;;;7.00;6.50;;;;;22.56;46.60;101734.78;5015377;28;51174;-45
2021/06/24 06:47:17;;;;;;;;;6.50;6.50;;;;;22.56;46.45;101738.38;5013150;27;51046;-48
2021/06/24 06:49:43;;;;;;;;;9.50;6.50;;;;;22.58;46.25;101735.41;5013250;28;51256;-49
2021/06/24 06:52:08;;;;;;;;;7.00;6.25;;;;;22.60;46.89;101733.25;5012504;27;50995;-48
2021/06/24 06:54:33;;;;;;;;;8.00;7.75;;;;;22.59;46.77;101746.22;5033899;27;51112;-50
2021/06/24 06:56:59;;;;;;;;;8.50;7.75;;;;;22.58;46.79;101735.41;5011659;28;51196;-51
2021/06/24 06:59:24;;;;;;;;;7.75;7.75;;;;;22.58;46.34;101738.16;5026641;27;51259;-46
2021/06/24 07:01:50;;;;;;;;;7.50;6.50;;;;;22.59;46.06;101740.69;5017370;28;51922;-47
2021/06/24 07:04:15;;;;;;;;;8.25;6.75;;;;;22.60;46.46;101736.03;5017417;28;51008;-49
2021/06/24 07:06:42;;;;;;;;;8.75;5.75;;;;;22.60;46.58;101741.53;5012128;28;51474;-47
2021/06/24 07:09:07;;;;;;;;;6.25;5.00;;;;;22.61;46.54;101746.00;5012461;28;51029;-48
2021/06/24 07:11:33;;;;;;;;;5.00;5.00;;;;;22.58;46.39;101744.53;5013385;27;54152;-49
2021/06/24 07:13:58;;;;;;;;;7.00;6.00;;;;;22.58;46.73;101747.28;5014365;27;50991;-47
2021/06/24 07:16:25;;;;;;;;;6.50;5.25;;;;;22.56;46.91;101743.06;5014206;28;51143;-47
2021/06/24 07:18:50;;;;;;;;;7.75;7.75;;;;;22.55;46.59;101742.22;5036747;27;51035;-46
2021/06/24 07:21:15;;;;;;;;;5.75;5.00;;;;;22.55;46.85;101747.72;5019099;27;51836;-48
2021/06/24 07:23:41;;;;;;;;;11.00;5.75;;;;;22.54;46.86;101740.50;5014856;28;51028;-47
2021/06/24 07:26:06;;;;;;;;;10.00;6.75;;;;;22.55;46.98;101738.59;5015880;27;51018;-46
2021/06/24 07:28:32;;;;;;;;;9.00;6.00;;;;;22.55;46.61;101738.59;5073145;27;51376;-48
2021/06/24 07:30:57;;;;;;;;;7.00;5.25;;;;;22.54;46.79;101734.16;5016415;27;51260;-50
2021/06/24 07:33:23;;;;;;;;;5.75;5.75;;;;;22.53;46.44;101738.81;5016526;27;51027;-47
2021/06/24 07:35:49;;;;;;;;;7.25;6.00;;;;;22.52;46.55;101739.03;5018913;28;51625;-46
2021/06/24 07:38:14;;;;;;;;;6.00;5.50;;;;;22.53;46.88;101740.72;5035668;27;51148;-46
2021/06/24 07:40:41;;;;;;;;;6.50;4.50;;;;;22.51;46.37;101740.94;5031608;27;52328;-46
2021/06/24 07:43:06;;;;;;;;;6.25;6.25;;;;;22.52;46.39;101739.03;5022096;28;51268;-46
2021/06/24 07:45:32;;;;;;;;;7.00;6.00;;;;;22.52;46.46;101731.59;5015926;28;51012;-50
2021/06/24 07:47:58;;;;;;;;;4.75;4.75;;;;;22.51;46.76;101738.19;5016001;28;51358;-47
2021/06/24 07:50:24;;;;;;;;;7.00;7.00;;;;;22.52;46.55;101750.09;5013799;28;51693;-46
2021/06/24 07:52:49;;;;;;;;;8.00;7.00;;;;;22.52;46.37;101742.66;5016474;27;51117;-46
2021/06/24 07:55:15;;;;;;;;;5.25;3.25;;;;;22.53;46.62;101740.72;5003930;28;51115;-47
2021/06/24 07:57:42;;;;;;;;;6.75;5.75;;;;;22.53;46.38;101743.50;5004123;28;51103;-47
2021/06/24 08:00:09;;;;;;;;;6.75;5.75;;;;;22.53;46.32;101743.50;5031149;28;52947;-47
2021/06/24 08:02:34;;;;;;;;;8.50;7.50;;;;;22.53;46.58;101743.50;5015191;27;51136;-48
2021/06/24 08:04:59;;;;;;;;;6.00;6.00;;;;;22.53;46.23;101747.09;5015485;27;50974;-50
2021/06/24 08:07:25;;;;;;;;;7.00;6.00;;;;;22.54;46.70;101746.03;5014297;28;50939;-49
2021/06/24 08:09:53;;;;;;;;;5.75;5.75;;;;;22.53;46.67;101743.50;5015052;27;51848;-47
2021/06/24 08:12:19;;;;;;;;;6.50;5.25;;;;;22.54;46.46;101743.28;5017626;28;51204;-46
2021/06/24 08:14:44;;;;;;;;;6.25;5.00;;;;;22.54;46.36;101745.19;5016627;27;51113;-48
2021/06/24 08:17:09;;;;;;;;;7.00;7.00;;;;;22.54;46.23;101746.03;5014982;28;51344;-53
2021/06/24 08:19:35;;;;;;;;;5.00;5.00;;;;;22.55;46.85;101738.59;5030042;27;51986;-47
2021/06/24 08:22:00;;;;;;;;;7.50;5.00;;;;;22.55;46.55;101735.84;5013368;27;51079;-51
2021/06/24 08:24:27;;;;;;;;;5.00;5.00;;;;;22.56;46.35;101737.53;5016402;27;51017;-50
2021/06/24 08:26:52;;;;;;;;;6.00;5.00;;;;;22.55;46.45;101736.69;5019536;27;51268;-47
2021/06/24 08:29:18;;;;;;;;;5.50;5.50;;;;;22.57;46.76;101744.75;5048581;27;51786;-48
2021/06/24 08:31:44;;;;;;;;;6.75;5.25;;;;;22.57;46.53;101744.75;5031975;27;51173;-51
2021/06/24 08:34:09;;;;;;;;;4.00;4.00;;;;;22.57;46.86;101748.34;5014836;28;51101;-49
2021/06/24 08:36:34;;;;;;;;;5.75;4.25;;;;;22.57;46.71;101753.03;5015224;28;51226;-47
2021/06/24 08:39:00;;;;;;;;;6.25;4.75;;;;;22.57;46.56;101753.03;5027926;27;52804;-46
2021/06/24 08:41:26;;;;;;;;;5.00;5.00;;;;;22.58;46.51;101763.00;5019996;27;51050;-46
2021/06/24 08:43:53;;;;;;;;;7.25;6.25;;;;;22.58;46.39;101758.34;5025326;28;51126;-47
2021/06/24 08:46:20;;;;;;;;;7.00;6.00;;;;;22.57;46.52;101753.03;5017314;28;51174;-48
2021/06/24 08:48:46;;;;;;;;;7.00;6.00;;;;;22.59;46.33;101756.41;5016824;28;51049;-47
2021/06/24 08:51:12;;;;;;;;;7.00;6.25;;;;;22.58;46.96;101750.06;5014832;27;51048;-49
2021/06/24 08:53:38;;;;;;;;;7.50;5.75;;;;;22.59;46.65;101753.66;5027936;28;51041;-46
2021/06/24 08:56:06;;;;;;;;;6.25;5.50;;;;;22.59;46.64;101751.75;5032841;27;51258;-49
2021/06/24 08:58:33;;;;;;;;;7.25;5.50;;;;;22.59;46.23;101748.13;5016492;28;51228;-47
2021/06/24 09:00:59;;;;;;;;;10.75;8.25;;;;;22.59;46.81;101757.28;5011510;27;51065;-47
2021/06/24 09:03:28;;;;;;;;;8.50;8.00;;;;;22.60;46.71;101749.84;5013618;28;51140;-48
2021/06/24 09:06:06;;;;;;;;;6.50;6.50;;;;;22.60;46.43;101756.19;5015941;27;51327;-47
2021/06/24 09:08:37;;;;;;;;;7.00;6.25;;;;;22.62;46.25;101759.63;5016680;27;52820;-45
2021/06/24 09:11:18;;;;;;;;;8.75;6.50;;;;;22.62;46.09;101759.63;5045116;27;51201;-47
2021/06/24 09:13:58;;;;;;;;;5.00;5.00;;;;;22.64;46.53;101762.16;5029321;27;50956;-46
2021/06/24 09:16:32;;;;;;;;;8.25;6.25;;;;;22.65;46.60;101761.94;5030608;27;50929;-48
2021/06/24 09:19:15;;;;;;;;;10.00;9.00;;;;;22.66;46.22;101762.78;5031782;27;51115;-48
2021/06/24 09:21:41;;;;;;;;;8.00;7.25;;;;;22.67;46.56;101762.56;5048469;27;51274;-46
2021/06/24 09:24:23;;;;;;;;;7.75;6.00;;;;;22.68;46.01;101764.28;5040535;27;51371;-48
2021/06/24 09:26:49;;;;;;;;;11.00;8.50;;;;;22.69;46.14;101765.13;5029157;27;51178;-45
2021/06/24 09:29:16;;;;;;;;;9.75;9.50;;;;;22.68;46.19;101763.41;5067896;27;51055;-50
2021/06/24 09:31:43;;;;;;;;;10.75;9.00;;;;;22.69;45.94;101767.88;5035265;27;51271;-45
2021/06/24 09:34:13;;;;;;;;;10.00;9.25;;;;;22.70;46.51;101764.91;5022698;27;51359;-49
2021/06/24 09:36:44;;;;;;;;;9.00;7.50;;;;;22.71;46.53;101765.75;5085392;27;51167;-46
2021/06/24 09:39:18;;;;;;;;;10.50;9.75;;;;;22.72;46.17;101761.94;5075245;27;51891;-47
2021/06/24 09:42:02;;;;;;;;;10.75;8.50;;;;;22.72;46.42;101765.56;5018106;27;51177;-46
2021/06/24 09:44:29;;;;;;;;;10.50;8.50;;;;;22.74;46.38;101770.84;5073465;27;51303;-47
2021/06/24 09:46:54;;;;;;;;;10.00;9.00;;;;;22.75;46.16;101767.03;5028450;27;51160;-47
2021/06/24 09:49:32;;;;;;;;;8.50;7.25;;;;;22.75;45.88;101773.41;5028464;27;51145;-46
2021/06/24 09:51:58;;;;;;;;;11.00;10.75;;;;;22.76;46.33;101772.34;5021592;27;50869;-49
2021/06/24 09:54:31;;;;;;;;;10.50;10.50;;;;;22.77;45.95;101767.66;5074984;27;51530;-48
2021/06/24 09:56:57;;;;;;;;;10.50;9.25;;;;;22.79;46.33;101773.81;5030265;27;51448;-48
2021/06/24 09:59:34;;;;;;;;;10.00;10.00;;;;;22.79;46.19;101782.09;5028434;27;51206;-47
2021/06/24 10:02:08;;;;;;;;;8.25;6.50;;;;;22.81;45.83;101785.47;5026652;27;52682;-49
2021/06/24 10:04:37;;;;;;;;;9.00;9.00;;;;;22.82;46.20;101775.28;5033973;27;51008;-47
2021/06/24 10:07:04;;;;;;;;;11.75;10.50;;;;;22.82;46.46;101781.66;5050170;27;50986;-46
2021/06/24 10:09:31;;;;;;;;;10.50;9.00;;;;;22.82;46.09;101778.91;5034329;27;50954;-47
2021/06/24 10:11:58;;;;;;;;;9.00;9.00;;;;;22.83;45.93;101782.53;5040392;27;50926;-47
2021/06/24 10:14:24;;;;;;;;;8.75;6.50;;;;;22.84;46.31;101789.78;5042351;27;54494;-48
2021/06/24 10:16:52;;;;;;;;;7.50;7.00;;;;;22.86;46.05;101787.66;5062885;27;50616;-46
2021/06/24 10:19:24;;;;;;;;;11.75;10.25;;;;;22.87;45.73;101790.19;5087679;27;51312;-49
2021/06/24 10:21:53;;;;;;;;;9.00;9.00;;;;;22.93;45.15;101789.34;5032689;27;51331;-44
2021/06/24 10:24:25;;;;;;;;;12.00;11.25;;;;;22.98;45.20;101786.75;5044520;27;51080;-47
2021/06/24 10:26:53;;;;;;;;;13.50;10.75;;;;;23.01;45.66;101797.38;5080196;27;51188;-45
2021/06/24 10:29:20;;;;;;;;;10.50;8.50;;;;;23.03;45.31;101783.34;5040531;27;51104;-44
2021/06/24 10:31:53;;;;;;;;;11.75;11.75;;;;;23.06;45.32;101793.13;5014861;27;50988;-44
2021/06/24 10:34:20;;;;;;;;;8.75;7.75;;;;;23.06;45.48;101782.09;5027874;27;51330;-45
2021/06/24 10:37:09;;;;;;;;;9.50;7.75;;;;;23.07;45.55;101784.63;5038481;27;51303;-50
2021/06/24 10:39:36;;;;;;;;;16.00;13.50;;;;;23.10;45.17;101786.09;5053264;27;51835;-44
2021/06/24 10:42:03;;;;;;;;;19.25;16.75;;;;;23.10;45.63;101783.34;5011696;27;51237;-49
2021/06/24 10:44:44;;;;;;;;;22.00;20.75;;;;;23.11;46.03;101783.09;5010779;28;51149;-45
2021/06/24 10:47:10;;;;;;;;;26.25;23.25;;;;;23.13;45.57;101789.25;5039360;27;51013;-45
2021/06/24 10:49:38;;;;;;;;;37.25;31.00;;;;;23.14;45.62;101787.38;5023723;27;51984;-43
2021/06/24 10:52:18;;;;;;;;;28.00;26.00;;;;;23.14;45.72;101779.09;5039868;27;51128;-45
2021/06/24 10:54:44;;;;;;;;;29.50;25.75;;;;;23.13;45.65;101778.22;5028935;27;51500;-44
2021/06/24 10:57:34;;;;;;;;;27.25;26.00;;;;;23.16;45.87;101768.66;5034212;27;51307;-45
2021/06/24 11:00:38;;;;;;;;;25.75;21.75;;;;;23.18;45.68;101774.81;5031406;27;51903;-44
2021/06/24 11:03:07;;;;;;;;;22.25;18.75;;;;;23.21;45.71;101768.84;5016144;27;50982;-45
2021/06/24 11:05:41;;;;;;;;;21.25;19.25;;;;;23.22;46.27;101768.59;5017564;27;50970;-46
2021/06/24 11:08:30;;;;;;;;;20.50;18.25;;;;;23.23;45.97;101775.00;5017847;27;51319;-44
2021/06/24 11:11:00;;;;;;;;;21.75;18.25;;;;;23.24;45.68;101773.91;5012134;27;52959;-46
2021/06/24 11:13:50;;;;;;;;;21.75;17.75;;;;;23.24;45.74;101773.91;5015651;27;51048;-46
2021/06/24 11:16:16;;;;;;;;;17.00;16.25;;;;;23.25;45.72;101768.19;5026378;27;51170;-45
2021/06/24 11:18:44;;;;;;;;;13.50;12.75;;;;;23.27;45.51;101765.22;5030205;27;51091;-46
2021/06/24 11:21:22;;;;;;;;;18.50;16.25;;;;;23.28;45.68;101764.13;5042324;27;51674;-44
2021/06/24 11:23:53;;;;;;;;;18.50;15.50;;;;;23.30;45.76;101756.47;5033895;27;51123;-45